sensor_id;sensor_type;location;lat;lon;timestamp;P1;durP1;ratioP1;P2;durP2;ratioP2
30096;SDS011;16915;51.466;3.610;2022-09-12T00:01:52;14.15;;;11.27;;
30096;SDS011;16915;51.466;3.610;2022-09-12T00:04:18;12.13;;;10.85;;
30096;SDS011;16915;51.466;3.610;2022-09-12T00:06:43;13.65;;;10.82;;
30096;SDS011;16915;51.466;3.610;2022-09-12T00:09:10;13.43;;;11.32;;
30096;SDS011;16915;51.466;3.610;2022-09-12T00:11:39;15.00;;;11.07;;
30096;SDS011;16915;51.466;3.610;2022-09-12T00:14:08;13.20;;;10.80;;
30096;SDS011;16915;51.466;3.610;2022-09-12T00:16:49;15.40;;;11.38;;
30096;SDS011;16915;51.466;3.610;2022-09-12T00:19:14;17.40;;;10.88;;
30096;SDS011;16915;51.466;3.610;2022-09-12T00:21:40;15.57;;;10.98;;
30096;SDS011;16915;51.466;3.610;2022-09-12T00:24:06;16.40;;;11.75;;
30096;SDS011;16915;51.466;3.610;2022-09-12T00:26:33;14.88;;;12.00;;
30096;SDS011;16915;51.466;3.610;2022-09-12T00:29:00;15.35;;;13.07;;
30096;SDS011;16915;51.466;3.610;2022-09-12T00:31:26;15.77;;;12.38;;
30096;SDS011;16915;51.466;3.610;2022-09-12T00:33:53;16.00;;;12.43;;
30096;SDS011;16915;51.466;3.610;2022-09-12T00:36:22;16.52;;;13.18;;
30096;SDS011;16915;51.466;3.610;2022-09-12T00:38:49;14.43;;;12.85;;
30096;SDS011;16915;51.466;3.610;2022-09-12T00:41:17;16.63;;;14.38;;
30096;SDS011;16915;51.466;3.610;2022-09-12T00:47:03;16.42;;;12.50;;
30096;SDS011;16915;51.466;3.610;2022-09-12T00:49:47;17.73;;;13.43;;
30096;SDS011;16915;51.466;3.610;2022-09-12T00:52:23;21.45;;;14.18;;
30096;SDS011;16915;51.466;3.610;2022-09-12T00:54:55;19.30;;;14.57;;
30096;SDS011;16915;51.466;3.610;2022-09-12T00:57:28;18.38;;;14.30;;
30096;SDS011;16915;51.466;3.610;2022-09-12T01:00:05;19.55;;;15.05;;
30096;SDS011;16915;51.466;3.610;2022-09-12T01:02:43;17.20;;;14.32;;
30096;SDS011;16915;51.466;3.610;2022-09-12T01:05:14;25.92;;;15.23;;
30096;SDS011;16915;51.466;3.610;2022-09-12T01:07:41;20.23;;;14.30;;
30096;SDS011;16915;51.466;3.610;2022-09-12T01:10:08;16.35;;;13.20;;
30096;SDS011;16915;51.466;3.610;2022-09-12T01:12:36;17.83;;;15.13;;
30096;SDS011;16915;51.466;3.610;2022-09-12T01:15:03;16.98;;;14.55;;
30096;SDS011;16915;51.466;3.610;2022-09-12T01:17:31;18.15;;;15.13;;
30096;SDS011;16915;51.466;3.610;2022-09-12T01:23:25;20.13;;;15.77;;
30096;SDS011;16915;51.466;3.610;2022-09-12T01:26:24;18.40;;;16.00;;
30096;SDS011;16915;51.466;3.610;2022-09-12T01:31:50;19.63;;;15.75;;
30096;SDS011;16915;51.466;3.610;2022-09-12T01:34:24;24.83;;;17.67;;
30096;SDS011;16915;51.466;3.610;2022-09-12T01:45:32;18.38;;;15.48;;
30096;SDS011;16915;51.466;3.610;2022-09-12T01:48:22;18.60;;;15.95;;
30096;SDS011;16915;51.466;3.610;2022-09-12T01:51:20;19.75;;;14.82;;
30096;SDS011;16915;51.466;3.610;2022-09-12T01:54:06;19.23;;;15.70;;
30096;SDS011;16915;51.466;3.610;2022-09-12T01:59:45;17.75;;;13.65;;
30096;SDS011;16915;51.466;3.610;2022-09-12T02:02:14;17.50;;;13.63;;
30096;SDS011;16915;51.466;3.610;2022-09-12T02:05:17;14.43;;;12.93;;
30096;SDS011;16915;51.466;3.610;2022-09-12T02:07:53;17.35;;;13.25;;
30096;SDS011;16915;51.466;3.610;2022-09-12T02:10:27;16.67;;;12.90;;
30096;SDS011;16915;51.466;3.610;2022-09-12T02:13:00;19.80;;;14.73;;
30096;SDS011;16915;51.466;3.610;2022-09-12T02:15:36;18.50;;;14.77;;
30096;SDS011;16915;51.466;3.610;2022-09-12T02:18:07;19.92;;;13.77;;
30096;SDS011;16915;51.466;3.610;2022-09-12T02:20:42;16.92;;;13.90;;
30096;SDS011;16915;51.466;3.610;2022-09-12T02:23:29;18.75;;;14.02;;
30096;SDS011;16915;51.466;3.610;2022-09-12T02:25:59;19.33;;;14.18;;
30096;SDS011;16915;51.466;3.610;2022-09-12T02:28:45;24.65;;;13.25;;
30096;SDS011;16915;51.466;3.610;2022-09-12T02:39:25;19.67;;;13.52;;
30096;SDS011;16915;51.466;3.610;2022-09-12T02:41:55;13.75;;;12.13;;
30096;SDS011;16915;51.466;3.610;2022-09-12T02:44:25;16.15;;;12.30;;
30096;SDS011;16915;51.466;3.610;2022-09-12T02:46:53;13.02;;;11.60;;
30096;SDS011;16915;51.466;3.610;2022-09-12T02:49:24;15.32;;;12.43;;
30096;SDS011;16915;51.466;3.610;2022-09-12T02:51:50;15.23;;;12.00;;
30096;SDS011;16915;51.466;3.610;2022-09-12T02:54:16;17.38;;;13.35;;
30096;SDS011;16915;51.466;3.610;2022-09-12T02:56:44;16.42;;;11.35;;
30096;SDS011;16915;51.466;3.610;2022-09-12T02:59:10;13.80;;;11.38;;
30096;SDS011;16915;51.466;3.610;2022-09-12T03:01:58;15.00;;;11.13;;
30096;SDS011;16915;51.466;3.610;2022-09-12T03:13:32;16.13;;;12.48;;
30096;SDS011;16915;51.466;3.610;2022-09-12T03:26:44;23.45;;;14.40;;
30096;SDS011;16915;51.466;3.610;2022-09-12T03:29:20;18.33;;;14.35;;
30096;SDS011;16915;51.466;3.610;2022-09-12T03:31:49;21.35;;;13.88;;
30096;SDS011;16915;51.466;3.610;2022-09-12T03:34:17;20.88;;;14.57;;
30096;SDS011;16915;51.466;3.610;2022-09-12T03:36:43;20.98;;;14.52;;
30096;SDS011;16915;51.466;3.610;2022-09-12T03:39:09;18.83;;;12.85;;
30096;SDS011;16915;51.466;3.610;2022-09-12T03:41:35;19.02;;;13.60;;
30096;SDS011;16915;51.466;3.610;2022-09-12T03:44:01;17.50;;;12.32;;
30096;SDS011;16915;51.466;3.610;2022-09-12T03:46:26;18.58;;;12.82;;
30096;SDS011;16915;51.466;3.610;2022-09-12T03:48:52;15.07;;;11.85;;
30096;SDS011;16915;51.466;3.610;2022-09-12T03:51:17;14.95;;;11.52;;
30096;SDS011;16915;51.466;3.610;2022-09-12T03:53:43;18.25;;;11.52;;
30096;SDS011;16915;51.466;3.610;2022-09-12T03:56:09;15.98;;;12.77;;
30096;SDS011;16915;51.466;3.610;2022-09-12T03:58:36;19.42;;;12.85;;
30096;SDS011;16915;51.466;3.610;2022-09-12T04:01:09;19.23;;;13.57;;
30096;SDS011;16915;51.466;3.610;2022-09-12T04:03:39;19.15;;;14.00;;
30096;SDS011;16915;51.466;3.610;2022-09-12T04:06:06;20.17;;;13.88;;
30096;SDS011;16915;51.466;3.610;2022-09-12T04:08:35;19.85;;;15.65;;
30096;SDS011;16915;51.466;3.610;2022-09-12T04:11:05;22.20;;;15.90;;
30096;SDS011;16915;51.466;3.610;2022-09-12T04:13:33;29.70;;;17.50;;
30096;SDS011;16915;51.466;3.610;2022-09-12T04:15:59;27.83;;;18.27;;
30096;SDS011;16915;51.466;3.610;2022-09-12T04:18:26;25.38;;;17.70;;
30096;SDS011;16915;51.466;3.610;2022-09-12T04:20:51;28.17;;;17.88;;
30096;SDS011;16915;51.466;3.610;2022-09-12T04:23:20;26.13;;;17.85;;
30096;SDS011;16915;51.466;3.610;2022-09-12T04:25:57;26.08;;;17.88;;
30096;SDS011;16915;51.466;3.610;2022-09-12T04:28:24;33.30;;;19.35;;
30096;SDS011;16915;51.466;3.610;2022-09-12T04:30:50;27.02;;;18.45;;
30096;SDS011;16915;51.466;3.610;2022-09-12T04:33:16;27.90;;;18.13;;
30096;SDS011;16915;51.466;3.610;2022-09-12T04:35:46;28.90;;;18.25;;
30096;SDS011;16915;51.466;3.610;2022-09-12T04:38:12;25.52;;;17.52;;
30096;SDS011;16915;51.466;3.610;2022-09-12T04:40:38;24.95;;;17.27;;
30096;SDS011;16915;51.466;3.610;2022-09-12T04:43:04;26.75;;;17.25;;
30096;SDS011;16915;51.466;3.610;2022-09-12T04:45:32;21.70;;;16.13;;
30096;SDS011;16915;51.466;3.610;2022-09-12T04:47:58;20.90;;;16.15;;
30096;SDS011;16915;51.466;3.610;2022-09-12T04:50:24;21.42;;;16.02;;
30096;SDS011;16915;51.466;3.610;2022-09-12T04:52:50;21.90;;;16.40;;
30096;SDS011;16915;51.466;3.610;2022-09-12T04:55:18;25.33;;;16.38;;
30096;SDS011;16915;51.466;3.610;2022-09-12T04:57:48;24.88;;;16.77;;
30096;SDS011;16915;51.466;3.610;2022-09-12T05:00:14;25.55;;;16.88;;
30096;SDS011;16915;51.466;3.610;2022-09-12T05:02:40;27.98;;;17.77;;
30096;SDS011;16915;51.466;3.610;2022-09-12T05:05:06;27.15;;;18.35;;
30096;SDS011;16915;51.466;3.610;2022-09-12T05:07:32;27.02;;;17.95;;
30096;SDS011;16915;51.466;3.610;2022-09-12T05:09:58;27.33;;;18.25;;
30096;SDS011;16915;51.466;3.610;2022-09-12T05:12:24;26.10;;;17.27;;
30096;SDS011;16915;51.466;3.610;2022-09-12T05:14:50;27.67;;;18.67;;
30096;SDS011;16915;51.466;3.610;2022-09-12T05:17:19;27.38;;;19.77;;
30096;SDS011;16915;51.466;3.610;2022-09-12T05:19:46;30.08;;;18.65;;
30096;SDS011;16915;51.466;3.610;2022-09-12T05:22:12;27.05;;;18.73;;
30096;SDS011;16915;51.466;3.610;2022-09-12T05:24:38;32.28;;;18.25;;
30096;SDS011;16915;51.466;3.610;2022-09-12T05:27:07;30.83;;;19.42;;
30096;SDS011;16915;51.466;3.610;2022-09-12T05:29:33;29.30;;;19.40;;
30096;SDS011;16915;51.466;3.610;2022-09-12T05:31:58;29.08;;;18.75;;
30096;SDS011;16915;51.466;3.610;2022-09-12T05:34:24;30.80;;;19.45;;
30096;SDS011;16915;51.466;3.610;2022-09-12T05:36:57;27.95;;;18.50;;
30096;SDS011;16915;51.466;3.610;2022-09-12T05:39:44;28.75;;;17.80;;
30096;SDS011;16915;51.466;3.610;2022-09-12T05:42:10;28.10;;;18.92;;
30096;SDS011;16915;51.466;3.610;2022-09-12T05:44:37;28.52;;;18.25;;
30096;SDS011;16915;51.466;3.610;2022-09-12T05:47:09;28.48;;;19.08;;
30096;SDS011;16915;51.466;3.610;2022-09-12T05:49:36;27.45;;;18.95;;
30096;SDS011;16915;51.466;3.610;2022-09-12T05:52:04;28.67;;;19.13;;
30096;SDS011;16915;51.466;3.610;2022-09-12T05:54:30;27.65;;;18.85;;
30096;SDS011;16915;51.466;3.610;2022-09-12T05:57:20;32.20;;;19.67;;
30096;SDS011;16915;51.466;3.610;2022-09-12T06:00:09;32.47;;;20.50;;
30096;SDS011;16915;51.466;3.610;2022-09-12T06:02:40;28.33;;;19.27;;
30096;SDS011;16915;51.466;3.610;2022-09-12T06:05:12;32.35;;;19.95;;
30096;SDS011;16915;51.466;3.610;2022-09-12T06:08:21;30.58;;;19.48;;
30096;SDS011;16915;51.466;3.610;2022-09-12T06:10:46;29.00;;;19.02;;
30096;SDS011;16915;51.466;3.610;2022-09-12T06:13:51;29.77;;;18.92;;
30096;SDS011;16915;51.466;3.610;2022-09-12T06:16:28;24.83;;;18.40;;
30096;SDS011;16915;51.466;3.610;2022-09-12T06:18:56;24.75;;;17.15;;
30096;SDS011;16915;51.466;3.610;2022-09-12T06:21:23;25.42;;;16.23;;
30096;SDS011;16915;51.466;3.610;2022-09-12T06:23:55;22.90;;;15.82;;
30096;SDS011;16915;51.466;3.610;2022-09-12T06:26:30;21.50;;;16.02;;
30096;SDS011;16915;51.466;3.610;2022-09-12T06:29:47;21.48;;;15.27;;
30096;SDS011;16915;51.466;3.610;2022-09-12T06:32:24;18.98;;;14.48;;
30096;SDS011;16915;51.466;3.610;2022-09-12T06:34:51;17.77;;;13.80;;
30096;SDS011;16915;51.466;3.610;2022-09-12T06:37:44;18.55;;;14.20;;
30096;SDS011;16915;51.466;3.610;2022-09-12T06:40:19;18.48;;;12.73;;
30096;SDS011;16915;51.466;3.610;2022-09-12T06:42:48;20.08;;;14.93;;
30096;SDS011;16915;51.466;3.610;2022-09-12T06:45:14;17.15;;;14.38;;
30096;SDS011;16915;51.466;3.610;2022-09-12T06:47:59;16.73;;;12.25;;
30096;SDS011;16915;51.466;3.610;2022-09-12T06:50:39;13.27;;;11.88;;
30096;SDS011;16915;51.466;3.610;2022-09-12T06:53:06;17.65;;;12.98;;
30096;SDS011;16915;51.466;3.610;2022-09-12T06:55:34;15.13;;;11.98;;
30096;SDS011;16915;51.466;3.610;2022-09-12T06:58:00;16.38;;;12.15;;
30096;SDS011;16915;51.466;3.610;2022-09-12T07:00:28;13.57;;;11.02;;
30096;SDS011;16915;51.466;3.610;2022-09-12T07:03:25;14.05;;;11.30;;
30096;SDS011;16915;51.466;3.610;2022-09-12T07:05:52;14.38;;;10.52;;
30096;SDS011;16915;51.466;3.610;2022-09-12T07:08:19;14.30;;;11.15;;
30096;SDS011;16915;51.466;3.610;2022-09-12T07:10:45;13.68;;;10.43;;
30096;SDS011;16915;51.466;3.610;2022-09-12T07:13:11;13.68;;;10.43;;
30096;SDS011;16915;51.466;3.610;2022-09-12T07:15:37;12.63;;;10.30;;
30096;SDS011;16915;51.466;3.610;2022-09-12T07:18:03;17.38;;;10.27;;
30096;SDS011;16915;51.466;3.610;2022-09-12T07:20:29;12.05;;;8.88;;
30096;SDS011;16915;51.466;3.610;2022-09-12T07:22:57;12.43;;;10.02;;
30096;SDS011;16915;51.466;3.610;2022-09-12T07:25:23;9.98;;;8.70;;
30096;SDS011;16915;51.466;3.610;2022-09-12T07:27:51;13.63;;;10.23;;
30096;SDS011;16915;51.466;3.610;2022-09-12T07:30:17;13.55;;;9.55;;
30096;SDS011;16915;51.466;3.610;2022-09-12T07:32:45;13.45;;;9.63;;
30096;SDS011;16915;51.466;3.610;2022-09-12T07:35:11;12.98;;;9.65;;
30096;SDS011;16915;51.466;3.610;2022-09-12T07:37:37;10.80;;;9.10;;
30096;SDS011;16915;51.466;3.610;2022-09-12T07:40:03;11.57;;;9.35;;
30096;SDS011;16915;51.466;3.610;2022-09-12T07:42:29;12.02;;;9.10;;
30096;SDS011;16915;51.466;3.610;2022-09-12T07:44:55;12.00;;;9.27;;
30096;SDS011;16915;51.466;3.610;2022-09-12T07:47:20;11.70;;;8.65;;
30096;SDS011;16915;51.466;3.610;2022-09-12T07:49:46;11.77;;;8.70;;
30096;SDS011;16915;51.466;3.610;2022-09-12T07:52:12;11.55;;;8.10;;
30096;SDS011;16915;51.466;3.610;2022-09-12T07:54:38;7.90;;;7.20;;
30096;SDS011;16915;51.466;3.610;2022-09-12T07:57:03;8.57;;;7.55;;
30096;SDS011;16915;51.466;3.610;2022-09-12T07:59:29;12.05;;;8.52;;
30096;SDS011;16915;51.466;3.610;2022-09-12T08:01:55;9.60;;;8.05;;
30096;SDS011;16915;51.466;3.610;2022-09-12T08:04:20;12.70;;;7.68;;
30096;SDS011;16915;51.466;3.610;2022-09-12T08:06:46;8.40;;;7.30;;
30096;SDS011;16915;51.466;3.610;2022-09-12T08:09:12;7.30;;;6.55;;
30096;SDS011;16915;51.466;3.610;2022-09-12T08:11:42;9.60;;;6.55;;
30096;SDS011;16915;51.466;3.610;2022-09-12T08:14:08;7.90;;;7.03;;
30096;SDS011;16915;51.466;3.610;2022-09-12T08:16:33;8.38;;;7.03;;
30096;SDS011;16915;51.466;3.610;2022-09-12T08:19:02;8.98;;;8.07;;
30096;SDS011;16915;51.466;3.610;2022-09-12T08:21:29;10.63;;;6.90;;
30096;SDS011;16915;51.466;3.610;2022-09-12T08:23:58;9.85;;;6.60;;
30096;SDS011;16915;51.466;3.610;2022-09-12T08:26:32;10.60;;;6.72;;
30096;SDS011;16915;51.466;3.610;2022-09-12T08:29:04;7.03;;;6.43;;
30096;SDS011;16915;51.466;3.610;2022-09-12T08:31:31;6.97;;;5.93;;
30096;SDS011;16915;51.466;3.610;2022-09-12T08:34:00;7.63;;;6.50;;
30096;SDS011;16915;51.466;3.610;2022-09-12T08:36:28;7.60;;;6.35;;
30096;SDS011;16915;51.466;3.610;2022-09-12T08:38:57;8.70;;;7.15;;
30096;SDS011;16915;51.466;3.610;2022-09-12T08:47:40;7.18;;;6.53;;
30096;SDS011;16915;51.466;3.610;2022-09-12T08:50:11;7.35;;;5.80;;
30096;SDS011;16915;51.466;3.610;2022-09-12T08:58:50;8.70;;;5.95;;
30096;SDS011;16915;51.466;3.610;2022-09-12T09:01:29;7.60;;;6.13;;
30096;SDS011;16915;51.466;3.610;2022-09-12T09:17:31;6.22;;;5.65;;
30096;SDS011;16915;51.466;3.610;2022-09-12T09:20:04;5.90;;;5.20;;
30096;SDS011;16915;51.466;3.610;2022-09-12T09:22:48;5.93;;;4.68;;
30096;SDS011;16915;51.466;3.610;2022-09-12T09:25:20;5.32;;;4.93;;
30096;SDS011;16915;51.466;3.610;2022-09-12T09:30:30;5.72;;;4.72;;
30096;SDS011;16915;51.466;3.610;2022-09-12T09:32:59;5.82;;;4.70;;
30096;SDS011;16915;51.466;3.610;2022-09-12T09:35:31;6.18;;;5.22;;
30096;SDS011;16915;51.466;3.610;2022-09-12T09:38:24;4.75;;;4.32;;
30096;SDS011;16915;51.466;3.610;2022-09-12T09:40:58;8.00;;;4.72;;
30096;SDS011;16915;51.466;3.610;2022-09-12T09:43:47;4.70;;;4.30;;
30096;SDS011;16915;51.466;3.610;2022-09-12T09:46:12;5.28;;;4.80;;
30096;SDS011;16915;51.466;3.610;2022-09-12T09:48:45;6.38;;;4.80;;
30096;SDS011;16915;51.466;3.610;2022-09-12T09:51:14;5.82;;;4.82;;
30096;SDS011;16915;51.466;3.610;2022-09-12T09:54:27;4.50;;;4.10;;
30096;SDS011;16915;51.466;3.610;2022-09-12T09:56:47;5.10;;;4.60;;
30096;SDS011;16915;51.466;3.610;2022-09-12T09:59:26;4.82;;;4.28;;
30096;SDS011;16915;51.466;3.610;2022-09-12T10:02:19;5.15;;;4.30;;
30096;SDS011;16915;51.466;3.610;2022-09-12T10:04:51;5.88;;;3.65;;
30096;SDS011;16915;51.466;3.610;2022-09-12T10:07:19;4.53;;;4.13;;
30096;SDS011;16915;51.466;3.610;2022-09-12T10:12:50;4.82;;;4.38;;
30096;SDS011;16915;51.466;3.610;2022-09-12T10:15:32;6.03;;;4.75;;
30096;SDS011;16915;51.466;3.610;2022-09-12T10:17:58;6.10;;;4.05;;
30096;SDS011;16915;51.466;3.610;2022-09-12T10:20:37;4.38;;;3.85;;
30096;SDS011;16915;51.466;3.610;2022-09-12T10:23:22;4.20;;;3.92;;
30096;SDS011;16915;51.466;3.610;2022-09-12T10:28:39;4.68;;;4.03;;
30096;SDS011;16915;51.466;3.610;2022-09-12T10:31:07;3.75;;;3.55;;
30096;SDS011;16915;51.466;3.610;2022-09-12T10:33:44;4.57;;;4.18;;
30096;SDS011;16915;51.466;3.610;2022-09-12T10:36:17;4.88;;;3.38;;
30096;SDS011;16915;51.466;3.610;2022-09-12T10:38:50;5.00;;;3.53;;
30096;SDS011;16915;51.466;3.610;2022-09-12T10:41:23;3.50;;;3.20;;
30096;SDS011;16915;51.466;3.610;2022-09-12T10:43:49;4.30;;;3.47;;
30096;SDS011;16915;51.466;3.610;2022-09-12T10:48:44;3.42;;;3.22;;
30096;SDS011;16915;51.466;3.610;2022-09-12T10:53:48;3.80;;;3.50;;
30096;SDS011;16915;51.466;3.610;2022-09-12T10:56:17;4.13;;;3.72;;
30096;SDS011;16915;51.466;3.610;2022-09-12T11:18:06;4.13;;;2.20;;
30096;SDS011;16915;51.466;3.610;2022-09-12T11:26:10;2.30;;;2.20;;
30096;SDS011;16915;51.466;3.610;2022-09-12T11:28:49;3.03;;;2.72;;
30096;SDS011;16915;51.466;3.610;2022-09-12T11:33:51;2.92;;;2.33;;
30096;SDS011;16915;51.466;3.610;2022-09-12T11:38:50;3.78;;;2.70;;
30096;SDS011;16915;51.466;3.610;2022-09-12T11:41:26;3.53;;;3.22;;
30096;SDS011;16915;51.466;3.610;2022-09-12T11:44:14;3.50;;;2.90;;
30096;SDS011;16915;51.466;3.610;2022-09-12T11:46:42;5.07;;;2.90;;
30096;SDS011;16915;51.466;3.610;2022-09-12T12:00:17;3.30;;;2.50;;
30096;SDS011;16915;51.466;3.610;2022-09-12T12:02:57;4.72;;;2.72;;
30096;SDS011;16915;51.466;3.610;2022-09-12T12:05:50;3.53;;;2.58;;
30096;SDS011;16915;51.466;3.610;2022-09-12T12:08:17;5.18;;;3.30;;
30096;SDS011;16915;51.466;3.610;2022-09-12T12:13:21;2.83;;;2.58;;
30096;SDS011;16915;51.466;3.610;2022-09-12T12:16:05;2.92;;;2.65;;
30096;SDS011;16915;51.466;3.610;2022-09-12T12:18:43;2.83;;;2.42;;
30096;SDS011;16915;51.466;3.610;2022-09-12T12:21:17;4.25;;;2.65;;
30096;SDS011;16915;51.466;3.610;2022-09-12T12:29:02;1.88;;;1.77;;
30096;SDS011;16915;51.466;3.610;2022-09-12T12:31:32;1.88;;;1.40;;
30096;SDS011;16915;51.466;3.610;2022-09-12T12:36:56;2.50;;;1.92;;
30096;SDS011;16915;51.466;3.610;2022-09-12T12:42:01;3.28;;;1.40;;
30096;SDS011;16915;51.466;3.610;2022-09-12T12:47:18;3.25;;;1.40;;
30096;SDS011;16915;51.466;3.610;2022-09-12T12:49:54;1.65;;;1.30;;
30096;SDS011;16915;51.466;3.610;2022-09-12T12:52:21;1.95;;;1.30;;
30096;SDS011;16915;51.466;3.610;2022-09-12T12:54:50;1.60;;;1.50;;
30096;SDS011;16915;51.466;3.610;2022-09-12T12:57:27;1.95;;;1.70;;
30096;SDS011;16915;51.466;3.610;2022-09-12T13:05:44;1.50;;;1.30;;
30096;SDS011;16915;51.466;3.610;2022-09-12T13:10:55;6.95;;;2.33;;
30096;SDS011;16915;51.466;3.610;2022-09-12T13:13:35;1.55;;;1.45;;
30096;SDS011;16915;51.466;3.610;2022-09-12T13:16:10;3.22;;;1.65;;
30096;SDS011;16915;51.466;3.610;2022-09-12T13:21:18;2.13;;;1.90;;
30096;SDS011;16915;51.466;3.610;2022-09-12T13:24:02;1.30;;;1.20;;
30096;SDS011;16915;51.466;3.610;2022-09-12T13:26:34;1.33;;;1.23;;
30096;SDS011;16915;51.466;3.610;2022-09-12T13:29:23;1.23;;;0.88;;
30096;SDS011;16915;51.466;3.610;2022-09-12T13:31:54;1.00;;;1.00;;
30096;SDS011;16915;51.466;3.610;2022-09-12T13:34:24;1.30;;;1.20;;
30096;SDS011;16915;51.466;3.610;2022-09-12T13:39:20;2.75;;;1.30;;
30096;SDS011;16915;51.466;3.610;2022-09-12T13:45:05;3.67;;;1.70;;
30096;SDS011;16915;51.466;3.610;2022-09-12T13:47:46;3.22;;;1.73;;
30096;SDS011;16915;51.466;3.610;2022-09-12T13:50:26;2.97;;;1.25;;
30096;SDS011;16915;51.466;3.610;2022-09-12T13:52:56;4.30;;;2.00;;
30096;SDS011;16915;51.466;3.610;2022-09-12T13:55:35;5.97;;;1.55;;
30096;SDS011;16915;51.466;3.610;2022-09-12T13:58:05;3.25;;;2.17;;
30096;SDS011;16915;51.466;3.610;2022-09-12T14:00:40;1.98;;;1.77;;
30096;SDS011;16915;51.466;3.610;2022-09-12T14:03:28;1.70;;;1.60;;
30096;SDS011;16915;51.466;3.610;2022-09-12T14:06:12;1.70;;;1.42;;
30096;SDS011;16915;51.466;3.610;2022-09-12T14:08:40;1.80;;;1.70;;
30096;SDS011;16915;51.466;3.610;2022-09-12T14:11:07;2.30;;;1.52;;
30096;SDS011;16915;51.466;3.610;2022-09-12T14:13:35;2.25;;;1.70;;
30096;SDS011;16915;51.466;3.610;2022-09-12T14:16:03;1.83;;;1.50;;
30096;SDS011;16915;51.466;3.610;2022-09-12T14:18:34;2.05;;;1.88;;
30096;SDS011;16915;51.466;3.610;2022-09-12T14:21:07;1.85;;;1.75;;
30096;SDS011;16915;51.466;3.610;2022-09-12T14:23:34;2.47;;;2.28;;
30096;SDS011;16915;51.466;3.610;2022-09-12T14:26:08;2.70;;;1.80;;
30096;SDS011;16915;51.466;3.610;2022-09-12T14:28:38;6.07;;;1.83;;
30096;SDS011;16915;51.466;3.610;2022-09-12T14:31:18;4.13;;;3.47;;
30096;SDS011;16915;51.466;3.610;2022-09-12T14:33:55;3.13;;;2.20;;
30096;SDS011;16915;51.466;3.610;2022-09-12T14:36:42;5.40;;;3.10;;
30096;SDS011;16915;51.466;3.610;2022-09-12T14:39:29;11.85;;;6.82;;
30096;SDS011;16915;51.466;3.610;2022-09-12T14:42:14;3.60;;;3.30;;
30096;SDS011;16915;51.466;3.610;2022-09-12T14:45:02;3.90;;;2.45;;
30096;SDS011;16915;51.466;3.610;2022-09-12T14:47:38;1.85;;;1.70;;
30096;SDS011;16915;51.466;3.610;2022-09-12T14:50:16;3.95;;;2.40;;
30096;SDS011;16915;51.466;3.610;2022-09-12T14:52:45;1.80;;;1.70;;
30096;SDS011;16915;51.466;3.610;2022-09-12T14:55:27;2.50;;;1.70;;
30096;SDS011;16915;51.466;3.610;2022-09-12T15:03:25;5.28;;;1.27;;
30096;SDS011;16915;51.466;3.610;2022-09-12T15:05:55;3.75;;;1.40;;
30096;SDS011;16915;51.466;3.610;2022-09-12T15:08:22;3.60;;;1.70;;
30096;SDS011;16915;51.466;3.610;2022-09-12T15:10:49;3.60;;;2.05;;
30096;SDS011;16915;51.466;3.610;2022-09-12T15:15:47;10.13;;;2.95;;
30096;SDS011;16915;51.466;3.610;2022-09-12T15:18:14;4.82;;;2.45;;
30096;SDS011;16915;51.466;3.610;2022-09-12T15:20:42;3.80;;;1.73;;
30096;SDS011;16915;51.466;3.610;2022-09-12T15:23:19;4.72;;;2.20;;
30096;SDS011;16915;51.466;3.610;2022-09-12T15:28:27;1.80;;;1.60;;
30096;SDS011;16915;51.466;3.610;2022-09-12T15:30:54;1.85;;;1.40;;
30096;SDS011;16915;51.466;3.610;2022-09-12T15:33:21;1.70;;;1.50;;
30096;SDS011;16915;51.466;3.610;2022-09-12T15:35:48;3.75;;;1.38;;
30096;SDS011;16915;51.466;3.610;2022-09-12T15:38:15;1.08;;;1.08;;
30096;SDS011;16915;51.466;3.610;2022-09-12T15:40:41;1.20;;;1.10;;
30096;SDS011;16915;51.466;3.610;2022-09-12T15:43:06;3.05;;;1.55;;
30096;SDS011;16915;51.466;3.610;2022-09-12T15:45:36;1.95;;;1.48;;
30096;SDS011;16915;51.466;3.610;2022-09-12T15:48:01;2.00;;;1.30;;
30096;SDS011;16915;51.466;3.610;2022-09-12T15:50:27;2.13;;;1.48;;
30096;SDS011;16915;51.466;3.610;2022-09-12T15:52:53;1.67;;;1.17;;
30096;SDS011;16915;51.466;3.610;2022-09-12T15:55:21;4.65;;;1.25;;
30096;SDS011;16915;51.466;3.610;2022-09-12T15:57:52;1.30;;;1.20;;
30096;SDS011;16915;51.466;3.610;2022-09-12T16:00:18;1.48;;;1.20;;
30096;SDS011;16915;51.466;3.610;2022-09-12T16:02:44;1.60;;;1.48;;
30096;SDS011;16915;51.466;3.610;2022-09-12T16:05:18;2.97;;;1.13;;
30096;SDS011;16915;51.466;3.610;2022-09-12T16:07:49;3.65;;;1.08;;
30096;SDS011;16915;51.466;3.610;2022-09-12T16:10:20;1.65;;;1.10;;
30096;SDS011;16915;51.466;3.610;2022-09-12T16:12:47;1.20;;;1.10;;
30096;SDS011;16915;51.466;3.610;2022-09-12T16:15:15;6.82;;;1.10;;
30096;SDS011;16915;51.466;3.610;2022-09-12T16:17:42;2.47;;;1.02;;
30096;SDS011;16915;51.466;3.610;2022-09-12T16:20:08;2.17;;;1.00;;
30096;SDS011;16915;51.466;3.610;2022-09-12T16:22:35;1.55;;;1.42;;
30096;SDS011;16915;51.466;3.610;2022-09-12T16:25:00;1.40;;;1.30;;
30096;SDS011;16915;51.466;3.610;2022-09-12T16:27:26;2.15;;;1.65;;
30096;SDS011;16915;51.466;3.610;2022-09-12T16:29:51;1.00;;;0.90;;
30096;SDS011;16915;51.466;3.610;2022-09-12T16:32:17;2.85;;;0.98;;
30096;SDS011;16915;51.466;3.610;2022-09-12T16:34:43;1.00;;;0.90;;
30096;SDS011;16915;51.466;3.610;2022-09-12T16:37:08;1.58;;;1.00;;
30096;SDS011;16915;51.466;3.610;2022-09-12T16:39:34;7.60;;;1.15;;
30096;SDS011;16915;51.466;3.610;2022-09-12T16:42:00;4.28;;;1.50;;
30096;SDS011;16915;51.466;3.610;2022-09-12T16:44:26;1.77;;;1.20;;
30096;SDS011;16915;51.466;3.610;2022-09-12T16:46:51;2.45;;;1.33;;
30096;SDS011;16915;51.466;3.610;2022-09-12T16:49:17;2.03;;;1.40;;
30096;SDS011;16915;51.466;3.610;2022-09-12T16:51:43;3.92;;;2.05;;
30096;SDS011;16915;51.466;3.610;2022-09-12T16:54:11;2.80;;;2.00;;
30096;SDS011;16915;51.466;3.610;2022-09-12T16:56:38;4.90;;;2.40;;
30096;SDS011;16915;51.466;3.610;2022-09-12T16:59:05;3.65;;;2.65;;
30096;SDS011;16915;51.466;3.610;2022-09-12T17:01:31;2.97;;;2.05;;
30096;SDS011;16915;51.466;3.610;2022-09-12T17:03:58;4.18;;;2.38;;
30096;SDS011;16915;51.466;3.610;2022-09-12T17:06:24;4.03;;;2.45;;
30096;SDS011;16915;51.466;3.610;2022-09-12T17:08:51;2.58;;;2.38;;
30096;SDS011;16915;51.466;3.610;2022-09-12T17:11:20;1.80;;;1.70;;
30096;SDS011;16915;51.466;3.610;2022-09-12T17:13:48;9.23;;;2.05;;
30096;SDS011;16915;51.466;3.610;2022-09-12T17:16:14;4.60;;;1.55;;
30096;SDS011;16915;51.466;3.610;2022-09-12T17:18:40;4.97;;;2.30;;
30096;SDS011;16915;51.466;3.610;2022-09-12T17:21:06;2.55;;;2.22;;
30096;SDS011;16915;51.466;3.610;2022-09-12T17:23:33;2.83;;;1.60;;
30096;SDS011;16915;51.466;3.610;2022-09-12T17:25:59;3.40;;;1.58;;
30096;SDS011;16915;51.466;3.610;2022-09-12T17:28:25;1.10;;;1.00;;
30096;SDS011;16915;51.466;3.610;2022-09-12T17:30:58;3.47;;;2.00;;
30096;SDS011;16915;51.466;3.610;2022-09-12T17:33:25;5.28;;;2.45;;
30096;SDS011;16915;51.466;3.610;2022-09-12T17:35:52;3.67;;;2.40;;
30096;SDS011;16915;51.466;3.610;2022-09-12T17:38:19;4.05;;;2.67;;
30096;SDS011;16915;51.466;3.610;2022-09-12T17:40:46;4.93;;;2.53;;
30096;SDS011;16915;51.466;3.610;2022-09-12T17:43:12;4.07;;;1.88;;
30096;SDS011;16915;51.466;3.610;2022-09-12T17:45:39;3.47;;;1.63;;
30096;SDS011;16915;51.466;3.610;2022-09-12T17:48:06;1.30;;;1.20;;
30096;SDS011;16915;51.466;3.610;2022-09-12T17:50:36;3.05;;;1.27;;
30096;SDS011;16915;51.466;3.610;2022-09-12T17:53:02;3.67;;;1.30;;